Time;durP1;ratioP1;P1;durP2;ratioP2;P2;SDS_P1;SDS_P2;PMS_P1;PMS_P2;Temp;Humidity;BMP_temperature;BMP_pressure;BME280_temperature;BME280_humidity;BME280_pressure;Samples;Min_cycle;Max_cycle;Signal;HPM_P1;HPM_P2
2023/12/19 00:01:25;;;;;;;39.97;20.87;;;6.00;99.90;;;;;;5036176;28;20196;-84
2023/12/19 00:04:14;;;;;;;36.73;20.83;;;6.00;99.90;;;;;;5034065;28;20207;-85
2023/12/19 00:07:02;;;;;;;42.30;21.57;;;6.00;99.90;;;;;;5034261;28;20694;-86
2023/12/19 00:09:50;;;;;;;41.23;20.27;;;6.00;99.90;;;;;;5033245;28;20622;-86
2023/12/19 00:12:38;;;;;;;39.23;19.73;;;5.90;99.90;;;;;;5033064;28;20215;-86
2023/12/19 00:15:26;;;;;;;38.83;19.57;;;5.90;99.90;;;;;;5032190;28;20205;-85
2023/12/19 00:18:13;;;;;;;36.13;18.67;;;5.90;99.90;;;;;;5048972;28;20209;-85
2023/12/19 00:21:00;;;;;;;34.10;18.67;;;5.90;99.90;;;;;;5043614;28;20199;-86
2023/12/19 00:23:50;;;;;;;38.40;18.97;;;5.90;99.90;;;;;;5034385;28;20294;-86
2023/12/19 00:26:38;;;;;;;32.23;17.73;;;5.90;99.90;;;;;;5031992;28;20269;-86
2023/12/19 00:29:25;;;;;;;34.07;17.17;;;5.90;99.90;;;;;;5032356;28;20278;-86
2023/12/19 00:32:12;;;;;;;34.20;16.97;;;5.80;99.90;;;;;;5032211;28;20224;-85
2023/12/19 00:34:59;;;;;;;34.77;16.83;;;5.90;99.90;;;;;;5032765;28;20572;-85
2023/12/19 00:37:47;;;;;;;29.13;15.77;;;5.80;99.90;;;;;;5032823;28;20198;-86
2023/12/19 00:40:36;;;;;;;28.87;15.97;;;5.80;99.90;;;;;;5032186;28;20687;-86
2023/12/19 00:43:24;;;;;;;30.93;15.77;;;5.80;99.90;;;;;;5032287;28;20265;-86
2023/12/19 00:46:11;;;;;;;29.03;15.50;;;5.80;99.90;;;;;;5034259;28;20274;-86
2023/12/19 00:48:59;;;;;;;25.83;14.50;;;5.80;99.90;;;;;;5032151;28;20216;-86
2023/12/19 00:51:46;;;;;;;23.30;14.03;;;5.80;99.90;;;;;;5032790;28;20197;-87
2023/12/19 00:54:33;;;;;;;23.13;13.93;;;5.80;99.90;;;;;;5031576;28;20208;-86
2023/12/19 00:57:21;;;;;;;24.90;13.87;;;5.80;99.90;;;;;;5031651;28;20215;-86
2023/12/19 01:00:09;;;;;;;27.67;13.67;;;5.80;99.90;;;;;;5031908;28;20209;-86
2023/12/19 01:02:56;;;;;;;22.83;12.47;;;5.80;99.90;;;;;;5031904;28;20271;-86
2023/12/19 01:05:44;;;;;;;23.03;13.27;;;5.80;99.90;;;;;;5032846;28;20319;-86
2023/12/19 01:08:31;;;;;;;23.43;12.87;;;5.80;99.90;;;;;;5032346;28;20233;-86
2023/12/19 01:11:19;;;;;;;23.50;12.70;;;5.80;99.90;;;;;;5030603;28;20671;-87
2023/12/19 01:14:06;;;;;;;22.20;12.03;;;5.80;99.90;;;;;;5032281;28;20321;-86
2023/12/19 01:16:53;;;;;;;22.60;11.70;;;5.90;99.90;;;;;;5031770;28;20223;-85
2023/12/19 01:19:41;;;;;;;21.10;11.90;;;5.80;99.90;;;;;;5032290;28;20196;-87
2023/12/19 01:22:28;;;;;;;20.33;11.67;;;5.80;99.90;;;;;;5032491;28;20270;-86
2023/12/19 01:25:15;;;;;;;20.50;11.00;;;5.80;99.90;;;;;;5032031;28;20206;-86
2023/12/19 01:28:03;;;;;;;21.37;11.03;;;5.90;99.90;;;;;;5032300;28;20223;-85
2023/12/19 01:30:58;;;;;;;20.27;10.83;;;5.90;99.90;;;;;;5032485;28;20204;-86
2023/12/19 01:33:45;;;;;;;18.13;10.33;;;5.80;99.90;;;;;;5031653;28;20222;-86
2023/12/19 01:36:33;;;;;;;18.87;9.90;;;5.90;99.90;;;;;;5031625;28;20666;-87
2023/12/19 01:39:20;;;;;;;22.13;10.60;;;5.90;99.90;;;;;;5032012;28;20203;-86
2023/12/19 01:42:08;;;;;;;20.23;9.70;;;5.90;99.90;;;;;;5030106;28;20294;-85
2023/12/19 01:45:11;;;;;;;18.00;9.60;;;6.00;99.90;;;;;;5032521;28;20191;-86
2023/12/19 01:47:59;;;;;;;17.17;9.37;;;6.00;99.90;;;;;;5032523;28;20553;-86
2023/12/19 01:50:49;;;;;;;18.80;9.40;;;6.00;99.90;;;;;;5032106;28;20230;-87
2023/12/19 01:53:37;;;;;;;16.87;8.97;;;6.00;99.90;;;;;;5031670;28;20250;-87
2023/12/19 01:56:24;;;;;;;16.60;8.40;;;5.90;99.90;;;;;;5031815;28;20302;-86
2023/12/19 01:59:12;;;;;;;15.40;8.67;;;5.90;99.90;;;;;;5031973;28;20283;-87
2023/12/19 02:02:00;;;;;;;16.17;8.57;;;5.90;99.90;;;;;;5032685;28;20772;-87
2023/12/19 02:04:48;;;;;;;15.33;8.50;;;5.90;99.90;;;;;;5031763;28;20231;-87
2023/12/19 02:07:35;;;;;;;14.73;9.10;;;5.90;99.90;;;;;;5030735;28;20283;-87
2023/12/19 02:10:24;;;;;;;16.13;7.87;;;5.90;99.90;;;;;;5033271;28;20203;-87
2023/12/19 02:13:11;;;;;;;14.33;7.40;;;5.90;99.90;;;;;;5035654;28;20245;-87
2023/12/19 02:15:58;;;;;;;14.83;7.50;;;5.90;99.90;;;;;;5035552;28;20333;-87
2023/12/19 02:19:02;;;;;;;14.43;7.80;;;5.90;99.90;;;;;;5035636;28;20194;-87
2023/12/19 02:21:50;;;;;;;14.07;7.10;;;5.90;99.90;;;;;;5035532;28;20205;-86
2023/12/19 02:24:37;;;;;;;12.00;7.07;;;5.90;99.90;;;;;;5035438;28;20581;-87
2023/12/19 02:27:25;;;;;;;12.97;6.87;;;5.90;99.90;;;;;;5035283;28;20599;-87
2023/12/19 02:30:13;;;;;;;14.07;7.20;;;5.90;99.90;;;;;;5034250;28;20668;-86
2023/12/19 02:33:02;;;;;;;12.20;6.80;;;5.90;99.90;;;;;;5034174;28;20192;-86
2023/12/19 02:35:49;;;;;;;12.67;6.70;;;5.90;99.90;;;;;;5034142;28;20195;-86
2023/12/19 02:38:36;;;;;;;13.97;6.37;;;5.90;99.90;;;;;;5034106;28;20200;-86
2023/12/19 02:41:24;;;;;;;13.60;6.93;;;5.90;99.90;;;;;;5034613;28;20357;-87
2023/12/19 02:44:12;;;;;;;10.80;6.40;;;6.00;99.90;;;;;;5036316;28;20583;-87
2023/12/19 02:46:59;;;;;;;12.10;6.30;;;5.90;99.90;;;;;;5034880;28;20191;-87
2023/12/19 02:49:46;;;;;;;12.10;6.63;;;6.00;99.90;;;;;;5034446;28;20196;-86
2023/12/19 02:52:34;;;;;;;11.23;6.07;;;5.90;99.90;;;;;;5035009;28;20654;-85
2023/12/19 02:55:21;;;;;;;12.07;5.87;;;5.90;99.90;;;;;;5035309;28;20722;-84
2023/12/19 02:58:09;;;;;;;11.27;5.90;;;5.90;99.90;;;;;;5034633;28;20192;-85
2023/12/19 03:00:57;;;;;;;10.93;5.90;;;5.90;99.90;;;;;;5034756;28;20200;-84
2023/12/19 03:03:44;;;;;;;11.23;6.03;;;5.80;99.90;;;;;;5034094;28;20214;-84
2023/12/19 03:06:31;;;;;;;11.03;6.03;;;5.80;99.90;;;;;;5034577;28;20207;-84
2023/12/19 03:09:19;;;;;;;11.33;6.10;;;5.80;99.90;;;;;;5033583;28;20215;-85
2023/12/19 03:12:07;;;;;;;9.40;5.60;;;5.80;99.90;;;;;;5033418;28;20223;-85
2023/12/19 03:14:55;;;;;;;10.83;6.30;;;5.70;99.90;;;;;;5035148;28;20206;-84
2023/12/19 03:17:42;;;;;;;10.30;6.33;;;5.70;99.90;;;;;;5033890;28;20195;-85
2023/12/19 03:20:30;;;;;;;9.50;5.97;;;5.70;99.90;;;;;;5033194;28;20188;-84
2023/12/19 03:23:18;;;;;;;10.23;5.90;;;5.80;99.90;;;;;;5034321;28;20192;-84
2023/12/19 03:26:05;;;;;;;10.87;6.20;;;5.70;99.90;;;;;;5033361;28;20366;-85
2023/12/19 03:28:52;;;;;;;10.53;5.60;;;5.70;99.90;;;;;;5033561;28;20326;-85
2023/12/19 03:31:42;;;;;;;12.03;5.90;;;5.70;99.90;;;;;;5034192;28;20206;-85
2023/12/19 03:34:30;;;;;;;10.57;5.67;;;5.70;99.90;;;;;;5034138;28;20665;-84
2023/12/19 03:37:17;;;;;;;10.27;5.60;;;5.70;99.90;;;;;;5033515;28;20214;-84
2023/12/19 03:40:05;;;;;;;11.33;5.73;;;5.80;99.90;;;;;;5034921;28;20577;-84
2023/12/19 03:42:53;;;;;;;12.60;6.53;;;5.80;99.90;;;;;;5032938;28;20196;-84
2023/12/19 03:45:41;;;;;;;9.90;5.70;;;5.90;99.90;;;;;;5034464;28;20647;-84
2023/12/19 03:48:28;;;;;;;9.50;5.73;;;5.90;99.90;;;;;;5033732;28;20222;-84
2023/12/19 03:51:16;;;;;;;10.37;6.00;;;6.00;99.90;;;;;;5033715;28;20195;-84
2023/12/19 03:54:03;;;;;;;12.23;5.90;;;5.90;99.90;;;;;;5034583;28;20192;-84
2023/12/19 03:56:53;;;;;;;11.37;6.27;;;6.00;99.90;;;;;;5034194;28;20258;-84
2023/12/19 03:59:43;;;;;;;11.47;6.27;;;6.00;99.90;;;;;;5034327;28;20226;-84
2023/12/19 04:02:31;;;;;;;12.30;5.90;;;6.00;99.90;;;;;;5033828;28;20271;-84
2023/12/19 04:05:18;;;;;;;11.67;5.70;;;6.00;99.90;;;;;;5032603;28;20235;-84
2023/12/19 04:08:06;;;;;;;12.27;5.67;;;6.10;99.90;;;;;;5033078;28;20573;-84
2023/12/19 04:10:53;;;;;;;11.00;6.00;;;6.10;99.90;;;;;;5034053;28;20771;-85
2023/12/19 04:13:41;;;;;;;9.93;5.53;;;6.10;99.90;;;;;;5032959;28;20196;-85
2023/12/19 04:16:28;;;;;;;12.57;5.47;;;6.10;99.90;;;;;;5033344;28;20345;-84
2023/12/19 04:19:15;;;;;;;10.10;5.80;;;6.10;99.90;;;;;;5033512;28;20196;-84
2023/12/19 04:22:03;;;;;;;9.60;5.53;;;6.10;99.90;;;;;;5032819;28;20201;-84
2023/12/19 04:24:51;;;;;;;10.13;5.50;;;6.20;99.90;;;;;;5032826;28;20289;-84
2023/12/19 04:27:39;;;;;;;10.80;5.77;;;6.20;99.90;;;;;;5032332;28;20227;-85
2023/12/19 04:30:27;;;;;;;8.97;5.20;;;6.20;99.90;;;;;;5033528;28;20671;-84
2023/12/19 04:33:14;;;;;;;9.43;5.40;;;6.30;99.90;;;;;;5032459;28;20249;-85
2023/12/19 04:36:02;;;;;;;11.07;5.33;;;6.30;99.90;;;;;;5032494;28;20230;-85
2023/12/19 04:38:50;;;;;;;10.33;5.70;;;6.30;99.90;;;;;;5033153;28;20195;-84
2023/12/19 04:41:38;;;;;;;9.17;5.40;;;6.30;99.90;;;;;;5032230;28;20486;-84
2023/12/19 04:44:25;;;;;;;10.17;5.67;;;6.40;99.90;;;;;;5033046;28;20593;-84
2023/12/19 04:47:13;;;;;;;11.83;5.70;;;6.40;99.90;;;;;;5033339;28;20194;-84
2023/12/19 04:50:00;;;;;;;10.97;4.93;;;6.40;99.90;;;;;;5034016;28;20691;-84
2023/12/19 04:52:48;;;;;;;8.90;5.03;;;6.50;99.90;;;;;;5031407;28;20192;-84
2023/12/19 04:55:36;;;;;;;9.07;4.90;;;6.40;99.90;;;;;;5031620;28;20192;-84
2023/12/19 04:58:23;;;;;;;9.53;5.37;;;6.50;99.90;;;;;;5032086;28;20280;-84
2023/12/19 05:01:11;;;;;;;8.67;4.80;;;6.50;99.90;;;;;;5031584;28;20196;-84
2023/12/19 05:03:58;;;;;;;8.37;4.90;;;6.50;99.90;;;;;;5032081;28;20199;-84
2023/12/19 05:06:46;;;;;;;10.43;5.03;;;6.50;99.90;;;;;;5032574;28;20195;-84
2023/12/19 05:09:34;;;;;;;9.00;5.07;;;6.50;99.90;;;;;;5032411;28;20226;-84
2023/12/19 05:12:23;;;;;;;10.77;5.10;;;6.50;99.90;;;;;;5032920;28;20211;-84
2023/12/19 05:15:10;;;;;;;10.33;5.20;;;6.50;99.90;;;;;;5031129;28;20187;-84
2023/12/19 05:17:57;;;;;;;10.17;5.00;;;6.50;99.90;;;;;;5032213;28;20670;-84
2023/12/19 05:20:45;;;;;;;9.87;5.17;;;6.60;99.90;;;;;;5032953;28;20200;-84
2023/12/19 05:23:35;;;;;;;8.50;4.90;;;6.50;99.90;;;;;;5031220;28;20274;-84
2023/12/19 05:26:22;;;;;;;10.13;5.03;;;6.60;99.90;;;;;;5032591;28;20302;-84
2023/12/19 05:29:09;;;;;;;8.47;4.93;;;6.60;99.90;;;;;;5030726;28;20226;-84
2023/12/19 05:31:57;;;;;;;8.53;5.33;;;6.60;99.90;;;;;;5032538;28;20196;-84
2023/12/19 05:34:44;;;;;;;8.60;4.97;;;6.60;99.90;;;;;;5032514;28;20805;-84
2023/12/19 05:37:32;;;;;;;9.37;5.10;;;6.60;99.90;;;;;;5031152;28;20251;-84
2023/12/19 05:40:19;;;;;;;8.70;4.93;;;6.60;99.90;;;;;;5031497;28;20229;-85
2023/12/19 05:43:06;;;;;;;10.27;5.37;;;6.60;99.90;;;;;;5031554;28;20203;-87
2023/12/19 05:45:53;;;;;;;9.13;4.97;;;6.60;99.90;;;;;;5035675;28;20671;-87
2023/12/19 05:48:41;;;;;;;8.03;4.77;;;6.60;99.90;;;;;;5035825;28;20232;-87
2023/12/19 05:51:29;;;;;;;10.93;5.17;;;6.60;99.90;;;;;;5035033;28;20198;-85
2023/12/19 05:54:16;;;;;;;11.17;5.20;;;6.60;99.90;;;;;;5037556;28;20197;-88
2023/12/19 05:57:04;;;;;;;9.00;4.90;;;6.60;99.90;;;;;;5033774;28;20679;-85
2023/12/19 05:59:51;;;;;;;10.17;4.90;;;6.70;99.90;;;;;;5036561;28;20188;-82
2023/12/19 06:02:39;;;;;;;7.87;4.87;;;6.70;99.90;;;;;;5036370;28;20225;-84
2023/12/19 06:05:26;;;;;;;8.90;4.77;;;6.70;99.90;;;;;;5035997;28;20230;-84
2023/12/19 06:08:16;;;;;;;9.13;5.30;;;6.70;99.90;;;;;;5035358;28;20725;-83
2023/12/19 06:11:04;;;;;;;9.03;5.03;;;6.70;99.90;;;;;;5034598;28;20298;-82
2023/12/19 06:13:52;;;;;;;12.60;5.20;;;6.70;99.90;;;;;;5035773;28;20200;-83
2023/12/19 06:16:39;;;;;;;8.47;5.10;;;6.70;99.90;;;;;;5035400;28;20197;-83
2023/12/19 06:19:26;;;;;;;9.97;4.80;;;6.70;99.90;;;;;;5034994;28;20687;-85
2023/12/19 06:22:14;;;;;;;11.13;5.30;;;6.70;99.90;;;;;;5035265;28;20195;-85
2023/12/19 06:25:02;;;;;;;8.80;5.10;;;6.70;99.90;;;;;;5034776;28;20274;-84
2023/12/19 06:27:49;;;;;;;10.27;5.27;;;6.70;99.90;;;;;;5035323;28;20193;-85
2023/12/19 06:30:37;;;;;;;9.03;5.10;;;6.70;99.90;;;;;;5035178;28;20517;-84
2023/12/19 06:33:26;;;;;;;9.27;5.30;;;6.70;99.90;;;;;;5035297;28;20197;-83
2023/12/19 06:36:31;;;;;;;8.53;5.27;;;6.80;99.90;;;;;;5033949;28;20237;-88
2023/12/19 06:39:19;;;;;;;9.33;5.00;;;6.80;99.90;;;;;;5034264;28;20195;-86
2023/12/19 06:42:06;;;;;;;10.27;5.77;;;6.80;99.90;;;;;;5035043;28;20686;-85
2023/12/19 06:44:54;;;;;;;10.07;5.07;;;6.80;99.90;;;;;;5033804;28;20211;-85
2023/12/19 06:47:41;;;;;;;11.00;5.00;;;6.80;99.90;;;;;;5035990;28;20260;-85
2023/12/19 06:50:29;;;;;;;11.40;5.63;;;6.80;99.90;;;;;;5034749;28;20250;-85
2023/12/19 06:53:16;;;;;;;10.77;6.00;;;6.80;99.90;;;;;;5035313;28;20209;-84
2023/12/19 06:56:04;;;;;;;11.23;5.47;;;6.80;99.90;;;;;;5033288;28;20350;-85
2023/12/19 06:58:51;;;;;;;11.70;5.67;;;6.80;99.90;;;;;;5034853;28;20203;-85
2023/12/19 07:01:39;;;;;;;11.03;5.63;;;6.80;99.90;;;;;;5035208;28;20549;-85
2023/12/19 07:04:27;;;;;;;14.20;5.40;;;6.80;99.90;;;;;;5034510;28;20236;-84
2023/12/19 07:07:15;;;;;;;11.87;5.77;;;6.80;99.90;;;;;;5034139;28;20196;-83
2023/12/19 07:10:03;;;;;;;11.57;5.23;;;6.80;99.90;;;;;;5034035;28;20223;-85
2023/12/19 07:12:52;;;;;;;12.00;6.03;;;6.80;99.90;;;;;;5034879;28;20601;-81
2023/12/19 07:15:39;;;;;;;10.97;5.30;;;6.80;99.90;;;;;;5034956;28;20586;-84
2023/12/19 07:18:28;;;;;;;9.77;5.73;;;6.80;99.90;;;;;;5033331;28;20628;-84
2023/12/19 07:21:23;;;;;;;10.67;5.30;;;6.80;99.90;;;;;;5035525;28;20198;-85
2023/12/19 07:24:11;;;;;;;8.47;5.47;;;6.80;99.90;;;;;;5034655;28;20693;-84
2023/12/19 07:26:58;;;;;;;13.60;5.93;;;6.70;99.90;;;;;;5034735;28;20211;-84
2023/12/19 07:29:45;;;;;;;12.70;5.77;;;6.70;99.90;;;;;;5034149;28;20669;-84
2023/12/19 07:32:33;;;;;;;12.07;5.57;;;6.70;99.90;;;;;;5033546;28;20191;-85
2023/12/19 07:35:20;;;;;;;10.03;5.73;;;6.70;99.90;;;;;;5034626;28;20280;-84
2023/12/19 07:38:08;;;;;;;11.87;5.47;;;6.60;99.90;;;;;;5034070;28;20201;-85
2023/12/19 07:40:55;;;;;;;14.43;6.10;;;6.70;99.90;;;;;;5033754;28;20239;-85
2023/12/19 07:43:42;;;;;;;11.87;6.43;;;6.80;99.90;;;;;;5033644;28;20245;-85
2023/12/19 07:46:30;;;;;;;11.13;5.53;;;6.70;99.90;;;;;;5034060;28;20359;-84
2023/12/19 07:49:17;;;;;;;9.57;5.57;;;6.70;99.90;;;;;;5033038;28;20315;-84
2023/12/19 07:52:05;;;;;;;11.47;6.00;;;6.70;99.90;;;;;;5034129;28;20190;-84
2023/12/19 07:54:53;;;;;;;9.57;5.40;;;6.80;99.90;;;;;;5033069;28;20195;-84
2023/12/19 07:57:40;;;;;;;9.80;5.60;;;6.80;99.90;;;;;;5034189;28;20219;-84
2023/12/19 08:00:28;;;;;;;11.53;5.80;;;6.80;99.90;;;;;;5035769;28;20195;-84
2023/12/19 08:03:16;;;;;;;10.83;6.40;;;6.80;99.90;;;;;;5033725;28;20200;-84
2023/12/19 08:06:05;;;;;;;11.60;5.90;;;6.80;99.90;;;;;;5033422;28;20228;-84
2023/12/19 08:08:53;;;;;;;11.17;5.97;;;6.80;99.90;;;;;;5032293;28;20672;-84
2023/12/19 08:11:40;;;;;;;11.90;6.33;;;6.80;99.90;;;;;;5033092;28;20688;-85
2023/12/19 08:14:28;;;;;;;11.87;6.17;;;6.80;99.90;;;;;;5033590;28;20241;-84
2023/12/19 08:17:15;;;;;;;11.20;5.73;;;6.70;99.90;;;;;;5033480;28;20192;-85
2023/12/19 08:20:05;;;;;;;13.47;6.27;;;6.60;99.90;;;;;;5034417;28;20204;-84
2023/12/19 08:22:53;;;;;;;13.70;5.70;;;6.80;99.90;;;;;;5038059;28;20253;-83
2023/12/19 08:25:41;;;;;;;10.63;5.70;;;6.80;99.90;;;;;;5034293;28;20283;-83
2023/12/19 08:28:29;;;;;;;11.87;6.57;;;6.80;99.90;;;;;;5032111;28;20196;-84
2023/12/19 08:31:16;;;;;;;10.33;5.80;;;6.80;99.90;;;;;;5033400;28;20194;-84
2023/12/19 08:34:04;;;;;;;10.23;5.90;;;6.80;99.90;;;;;;5032805;28;20604;-84
2023/12/19 08:36:51;;;;;;;10.17;5.50;;;6.80;99.90;;;;;;5032224;28;20200;-84
2023/12/19 08:39:39;;;;;;;10.67;5.90;;;6.80;99.90;;;;;;5033412;28;20198;-85
2023/12/19 08:42:26;;;;;;;12.63;6.13;;;6.80;99.90;;;;;;5031672;28;20219;-84
2023/12/19 08:45:18;;;;;;;10.40;5.67;;;6.70;99.90;;;;;;5032237;28;20209;-85
2023/12/19 08:48:05;;;;;;;10.17;5.53;;;6.70;99.90;;;;;;5032756;28;20278;-84
2023/12/19 08:50:53;;;;;;;11.17;6.07;;;6.70;99.90;;;;;;5032520;28;20231;-84
2023/12/19 08:53:41;;;;;;;12.87;6.10;;;6.70;99.90;;;;;;5031544;28;20250;-84
2023/12/19 08:56:28;;;;;;;13.37;6.70;;;6.80;99.90;;;;;;5031464;28;20218;-85
2023/12/19 08:59:15;;;;;;;10.73;5.97;;;6.80;99.90;;;;;;5032550;28;20274;-85
2023/12/19 09:02:04;;;;;;;11.77;6.13;;;6.90;99.90;;;;;;5031489;28;20196;-85
2023/12/19 09:04:51;;;;;;;10.17;5.97;;;6.90;99.90;;;;;;5032258;28;20321;-85
2023/12/19 09:07:42;;;;;;;11.97;6.13;;;7.00;99.90;;;;;;5031882;28;20196;-84
2023/12/19 09:10:30;;;;;;;9.17;5.67;;;7.10;99.90;;;;;;5031132;28;20219;-84
2023/12/19 09:13:17;;;;;;;10.03;6.00;;;7.10;99.90;;;;;;5032554;28;20192;-85
2023/12/19 09:16:08;;;;;;;10.87;5.60;;;7.20;99.90;;;;;;5032767;28;20199;-84
2023/12/19 09:18:56;;;;;;;12.07;5.97;;;7.20;99.90;;;;;;5031741;28;20199;-85
2023/12/19 09:21:43;;;;;;;10.70;5.90;;;7.30;99.90;;;;;;5032072;28;20206;-85
2023/12/19 09:24:31;;;;;;;11.43;5.90;;;7.30;99.90;;;;;;5031808;28;20196;-85
2023/12/19 09:27:18;;;;;;;11.47;6.23;;;7.30;99.90;;;;;;5033165;28;20221;-84
2023/12/19 09:30:06;;;;;;;10.67;5.97;;;7.30;99.90;;;;;;5030520;28;20714;-85
2023/12/19 09:32:53;;;;;;;11.83;5.90;;;7.40;99.90;;;;;;5032125;28;20192;-84
2023/12/19 09:35:41;;;;;;;10.53;5.80;;;7.40;99.90;;;;;;5032626;28;20198;-84
2023/12/19 09:38:29;;;;;;;9.43;6.33;;;7.40;99.90;;;;;;5032003;28;20247;-84
2023/12/19 09:41:17;;;;;;;10.53;6.30;;;7.50;99.90;;;;;;5030278;28;20654;-84
2023/12/19 09:44:04;;;;;;;12.40;6.53;;;7.50;99.90;;;;;;5030925;28;20205;-85
2023/12/19 09:46:53;;;;;;;13.57;6.20;;;7.50;99.90;;;;;;5031322;28;20245;-85
2023/12/19 09:49:43;;;;;;;10.97;6.33;;;7.50;99.90;;;;;;5031891;28;20297;-85
2023/12/19 09:52:34;;;;;;;12.73;6.87;;;7.60;99.90;;;;;;5031373;28;20629;-85
2023/12/19 09:55:21;;;;;;;10.47;6.27;;;7.60;99.90;;;;;;5031241;28;20196;-85
2023/12/19 09:58:10;;;;;;;11.10;5.87;;;7.60;99.90;;;;;;5031348;28;20207;-85
2023/12/19 10:00:59;;;;;;;9.73;5.73;;;7.60;99.90;;;;;;5032212;28;20201;-85
2023/12/19 10:03:49;;;;;;;10.43;6.07;;;7.60;99.90;;;;;;5033590;28;20192;-85
2023/12/19 10:06:37;;;;;;;10.70;5.93;;;7.70;99.90;;;;;;5034403;28;20189;-85
2023/12/19 10:09:56;;;;;;;9.50;5.87;;;7.60;99.90;;;;;;5031832;28;20213;-84
2023/12/19 10:12:50;;;;;;;10.97;6.00;;;7.70;99.90;;;;;;5030559;28;20215;-85
2023/12/19 10:15:41;;;;;;;12.40;6.33;;;7.70;99.90;;;;;;5031716;28;20189;-84
2023/12/19 10:18:28;;;;;;;9.27;5.83;;;7.70;99.90;;;;;;5029764;28;20191;-86
2023/12/19 10:21:32;;;;;;;9.60;6.20;;;7.80;99.90;;;;;;5031397;28;20191;-85
2023/12/19 10:24:26;;;;;;;11.87;6.30;;;7.80;99.90;;;;;;5031291;28;20192;-85
2023/12/19 10:27:22;;;;;;;9.93;6.40;;;7.80;99.90;;;;;;5031572;28;20226;-85
2023/12/19 10:30:20;;;;;;;12.50;5.93;;;7.90;99.90;;;;;;5033545;28;20208;-84
2023/12/19 10:33:08;;;;;;;9.97;6.27;;;8.00;99.90;;;;;;5036446;28;20200;-85
2023/12/19 10:35:56;;;;;;;10.10;6.27;;;8.00;99.90;;;;;;5035455;28;20234;-86
2023/12/19 10:38:46;;;;;;;10.10;5.80;;;8.00;99.90;;;;;;5035805;28;20280;-85
2023/12/19 10:41:35;;;;;;;10.53;6.07;;;8.10;99.90;;;;;;5033504;28;20235;-85
2023/12/19 10:44:23;;;;;;;11.03;6.07;;;8.00;99.90;;;;;;5034296;28;20189;-86
2023/12/19 10:47:11;;;;;;;10.30;6.07;;;8.10;99.90;;;;;;5034859;28;20209;-85
2023/12/19 10:49:58;;;;;;;9.70;6.20;;;8.00;99.90;;;;;;5034785;28;20294;-85
2023/12/19 10:52:50;;;;;;;10.73;6.27;;;8.10;99.90;;;;;;5034800;28;20584;-86
2023/12/19 10:55:45;;;;;;;13.97;6.57;;;8.10;99.90;;;;;;5033861;28;20296;-86
2023/12/19 10:58:39;;;;;;;9.57;5.87;;;8.20;99.90;;;;;;5034831;28;20206;-85
2023/12/19 11:01:28;;;;;;;9.67;6.30;;;8.20;99.90;;;;;;5035830;28;20205;-85
2023/12/19 11:04:22;;;;;;;11.33;6.60;;;8.20;99.90;;;;;;5034706;28;20191;-85
2023/12/19 11:07:14;;;;;;;12.80;6.37;;;8.20;99.90;;;;;;5036065;28;20201;-85
2023/12/19 11:10:05;;;;;;;11.07;6.30;;;8.20;99.90;;;;;;5035384;28;20316;-84
2023/12/19 11:12:53;;;;;;;11.30;6.67;;;8.10;99.90;;;;;;5035573;28;20201;-85
2023/12/19 11:15:55;;;;;;;11.27;6.47;;;8.20;99.90;;;;;;5036491;28;20376;-84
2023/12/19 11:18:57;;;;;;;9.17;6.07;;;8.20;99.90;;;;;;5034051;28;20248;-83
2023/12/19 11:21:55;;;;;;;12.77;6.60;;;8.20;99.90;;;;;;5034516;28;20191;-83
2023/12/19 11:24:50;;;;;;;10.37;6.23;;;8.20;99.90;;;;;;5035507;28;20256;-83
2023/12/19 11:27:43;;;;;;;10.63;6.47;;;8.30;99.90;;;;;;5035191;28;20225;-84
2023/12/19 11:30:35;;;;;;;11.27;6.27;;;8.30;99.90;;;;;;5033794;28;20305;-84
2023/12/19 11:33:30;;;;;;;10.67;6.50;;;8.40;99.90;;;;;;5035419;28;20199;-84
2023/12/19 11:36:19;;;;;;;11.23;6.20;;;8.40;99.90;;;;;;5033431;28;20191;-84
2023/12/19 11:39:25;;;;;;;9.60;5.53;;;8.30;99.90;;;;;;5033709;28;20188;-85
2023/12/19 11:42:38;;;;;;;10.43;6.03;;;8.30;99.90;;;;;;5034058;28;20679;-85
2023/12/19 11:45:29;;;;;;;11.67;6.27;;;8.30;99.90;;;;;;5032414;28;20194;-85
2023/12/19 11:48:36;;;;;;;11.30;6.50;;;8.40;99.90;;;;;;5034470;28;20663;-85
2023/12/19 11:52:00;;;;;;;10.43;6.30;;;8.30;99.90;;;;;;5034403;28;20219;-85
2023/12/19 11:54:50;;;;;;;11.57;6.47;;;8.30;99.90;;;;;;5011005;28;20212;-85
2023/12/19 11:57:40;;;;;;;10.70;6.40;;;8.30;99.90;;;;;;5011513;28;20270;-85
2023/12/19 12:00:36;;;;;;;9.77;6.77;;;8.30;99.90;;;;;;5017088;28;20200;-84
2023/12/19 12:03:27;;;;;;;11.27;6.63;;;8.30;99.90;;;;;;5011960;28;20977;-84
2023/12/19 12:06:18;;;;;;;14.07;7.07;;;8.40;99.90;;;;;;5011922;28;20622;-84
2023/12/19 12:09:06;;;;;;;11.40;6.53;;;8.30;99.90;;;;;;5011229;28;20320;-85
2023/12/19 12:11:54;;;;;;;12.87;7.63;;;8.40;99.90;;;;;;4998243;28;20222;-84
2023/12/19 12:14:41;;;;;;;10.57;6.80;;;8.40;99.90;;;;;;4998270;28;20220;-85
2023/12/19 12:17:29;;;;;;;11.77;6.87;;;8.40;99.90;;;;;;5011213;28;20684;-85
2023/12/19 12:20:26;;;;;;;12.03;7.70;;;8.30;99.90;;;;;;5011754;28;20196;-84
2023/12/19 12:23:19;;;;;;;13.97;7.27;;;8.40;99.90;;;;;;5010955;28;20328;-86
2023/12/19 12:26:08;;;;;;;14.57;7.07;;;8.40;99.90;;;;;;5012100;28;20639;-85
2023/12/19 12:28:56;;;;;;;11.67;6.53;;;8.30;99.90;;;;;;5025603;28;20500;-84
2023/12/19 12:31:47;;;;;;;15.57;7.37;;;8.30;99.90;;;;;;5032717;28;20223;-85
2023/12/19 12:34:35;;;;;;;11.90;7.20;;;8.40;99.90;;;;;;5033711;28;20197;-85
2023/12/19 12:37:23;;;;;;;12.40;7.30;;;8.30;99.90;;;;;;5032737;28;20253;-85
2023/12/19 12:40:14;;;;;;;14.30;7.00;;;8.30;99.90;;;;;;5032138;28;20312;-86
2023/12/19 12:44:00;;;;;;;11.67;7.20;;;8.30;99.90;;;;;;5032507;28;20208;-84
2023/12/19 12:46:47;;;;;;;11.53;7.13;;;8.40;99.90;;;;;;5033288;28;20225;-84
2023/12/19 12:49:35;;;;;;;14.53;7.30;;;8.30;99.90;;;;;;5033068;28;20538;-83
2023/12/19 12:52:23;;;;;;;12.30;7.10;;;8.40;99.90;;;;;;5032627;28;20204;-83
2023/12/19 12:55:12;;;;;;;12.87;7.00;;;8.40;99.90;;;;;;5031828;28;20766;-84
2023/12/19 12:58:02;;;;;;;11.53;7.17;;;8.30;99.90;;;;;;5032313;28;20194;-84
2023/12/19 13:00:50;;;;;;;13.37;7.40;;;8.30;99.90;;;;;;5032517;28;20276;-83
2023/12/19 13:03:38;;;;;;;12.30;7.23;;;8.30;99.90;;;;;;5033796;28;20207;-85
2023/12/19 13:06:25;;;;;;;12.33;7.13;;;8.20;99.90;;;;;;5031899;28;20255;-85
2023/12/19 13:09:14;;;;;;;11.93;6.63;;;8.20;99.90;;;;;;5032346;28;20330;-86
2023/12/19 13:12:03;;;;;;;12.83;7.03;;;8.30;99.90;;;;;;5032355;28;20704;-85
2023/12/19 13:14:51;;;;;;;12.27;6.80;;;8.30;99.90;;;;;;5031932;28;20278;-85
2023/12/19 13:17:39;;;;;;;13.47;7.10;;;8.20;99.90;;;;;;5031249;28;20599;-86
2023/12/19 13:20:26;;;;;;;11.17;6.97;;;8.30;99.90;;;;;;5031945;28;20196;-85
2023/12/19 13:23:14;;;;;;;12.97;6.90;;;8.30;99.90;;;;;;5032724;28;20673;-85
2023/12/19 13:26:02;;;;;;;13.27;6.87;;;8.20;99.90;;;;;;5032088;28;20222;-85
2023/12/19 13:28:49;;;;;;;13.17;7.13;;;8.20;99.90;;;;;;5032105;28;20723;-86
2023/12/19 13:31:37;;;;;;;17.83;7.13;;;8.30;99.90;;;;;;5032067;28;20293;-85
2023/12/19 13:34:27;;;;;;;13.10;7.30;;;8.20;99.90;;;;;;5031490;28;20272;-85
2023/12/19 13:37:14;;;;;;;15.47;7.20;;;8.20;99.90;;;;;;5032200;28;20196;-85
2023/12/19 13:40:07;;;;;;;14.00;7.60;;;8.10;99.90;;;;;;5032689;28;20191;-86
2023/12/19 13:42:57;;;;;;;12.53;7.03;;;8.10;99.90;;;;;;5031415;28;20206;-85
2023/12/19 13:45:45;;;;;;;14.10;6.37;;;8.10;99.90;;;;;;5032158;28;20195;-86
2023/12/19 13:48:34;;;;;;;10.77;5.97;;;8.10;99.90;;;;;;5031995;28;20567;-86
2023/12/19 13:51:22;;;;;;;14.87;6.50;;;8.10;99.90;;;;;;5031842;28;20607;-85
2023/12/19 13:54:09;;;;;;;17.03;6.80;;;8.20;99.90;;;;;;5032602;28;20200;-87
2023/12/19 13:56:57;;;;;;;14.57;6.97;;;8.20;99.90;;;;;;5031941;28;20226;-86
2023/12/19 13:59:44;;;;;;;14.30;7.03;;;8.10;99.90;;;;;;5032583;28;20200;-86
2023/12/19 14:02:31;;;;;;;15.10;6.17;;;8.10;99.90;;;;;;5031500;28;20209;-85
2023/12/19 14:05:19;;;;;;;10.57;5.93;;;8.10;99.90;;;;;;5030917;28;20228;-85
2023/12/19 14:08:06;;;;;;;13.90;6.37;;;8.10;99.90;;;;;;5035118;28;20205;-85
2023/12/19 14:10:54;;;;;;;11.10;6.37;;;8.10;99.90;;;;;;5036676;28;20578;-85
2023/12/19 14:13:42;;;;;;;12.43;6.00;;;8.10;99.90;;;;;;5035766;28;20245;-85
2023/12/19 14:16:29;;;;;;;15.07;6.17;;;8.10;99.90;;;;;;5035053;28;20219;-85
2023/12/19 14:19:17;;;;;;;15.03;6.53;;;8.10;99.90;;;;;;5036438;28;20722;-85
2023/12/19 14:22:05;;;;;;;15.27;6.70;;;8.20;99.90;;;;;;5036080;28;20203;-84
2023/12/19 14:24:54;;;;;;;16.27;6.10;;;8.10;99.90;;;;;;5036059;28;20275;-84
2023/12/19 14:27:42;;;;;;;16.67;6.43;;;7.90;99.90;;;;;;5039081;28;20258;-84
2023/12/19 14:30:30;;;;;;;11.53;6.00;;;7.90;99.90;;;;;;5035342;28;20231;-85
2023/12/19 14:33:17;;;;;;;18.93;6.63;;;7.90;99.90;;;;;;5033986;28;20197;-84
2023/12/19 14:36:08;;;;;;;13.47;6.63;;;7.90;99.90;;;;;;5035354;28;20656;-85
2023/12/19 14:38:59;;;;;;;14.63;5.90;;;7.90;99.90;;;;;;5036042;28;20200;-84
2023/12/19 14:41:46;;;;;;;18.47;6.70;;;7.80;99.90;;;;;;5034601;28;20222;-84